Time;durP1;ratioP1;P1;durP2;ratioP2;P2;SDS_P1;SDS_P2;PMS_P1;PMS_P2;Temp;Humidity;BMP_temperature;BMP_pressure;BME280_temperature;BME280_humidity;BME280_pressure;Samples;Min_cycle;Max_cycle;Signal;HPM_P1;HPM_P2
2021/09/05 00:01:45;;;;;;;2.97;1.25;;;15.60;79.30;;;;;;4611445;31;20052;-83
2021/09/05 00:04:20;;;;;;;2.33;1.20;;;15.60;79.30;;;;;;4619971;30;20256;-84
2021/09/05 00:10:15;;;;;;;1.50;1.10;;;15.60;79.50;;;;;;4647632;30;20063;-85
2021/09/05 00:12:42;;;;;;;1.77;1.10;;;15.60;79.40;;;;;;4647850;30;20068;-84
2021/09/05 00:15:10;;;;;;;1.52;1.15;;;15.50;79.30;;;;;;4671638;30;20054;-85
2021/09/05 00:17:43;;;;;;;1.33;1.00;;;15.60;79.40;;;;;;4695129;30;20159;-85
2021/09/05 00:20:10;;;;;;;1.20;1.00;;;15.60;79.50;;;;;;4724745;30;20143;-85
2021/09/05 00:23:03;;;;;;;1.67;1.05;;;15.50;79.50;;;;;;4750314;30;20501;-87
2021/09/05 00:25:31;;;;;;;2.85;1.10;;;15.70;79.60;;;;;;4762396;30;20145;-84
2021/09/05 00:28:01;;;;;;;1.33;1.02;;;15.50;79.60;;;;;;4789194;29;20418;-83
2021/09/05 00:30:27;;;;;;;1.20;0.90;;;15.60;79.60;;;;;;4822297;29;20137;-83
2021/09/05 00:32:55;;;;;;;1.98;1.05;;;15.50;79.60;;;;;;4921750;29;20410;-84
2021/09/05 00:35:21;;;;;;;3.28;1.30;;;15.40;79.60;;;;;;4919689;29;20130;-84
2021/09/05 00:37:47;;;;;;;2.25;1.27;;;15.50;79.60;;;;;;4934158;29;20135;-83
2021/09/05 00:44:57;;;;;;;2.25;1.30;;;15.40;79.70;;;;;;4914849;29;20043;-81
2021/09/05 00:47:53;;;;;;;2.03;1.30;;;15.40;79.80;;;;;;4888296;29;20041;-83
2021/09/05 00:50:19;;;;;;;2.33;1.40;;;15.40;79.80;;;;;;4895300;29;20509;-82
2021/09/05 00:57:22;;;;;;;2.05;1.33;;;15.10;79.70;;;;;;4898365;29;20076;-81
2021/09/05 01:10:50;;;;;;;3.35;1.20;;;15.10;79.80;;;;;;4842757;29;20469;-80
2021/09/05 01:13:16;;;;;;;2.28;1.20;;;15.10;79.80;;;;;;4844155;29;20046;-83
2021/09/05 01:15:42;;;;;;;1.83;1.17;;;15.10;79.90;;;;;;4842609;29;20045;-82
2021/09/05 01:18:10;;;;;;;2.20;1.20;;;15.10;80.50;;;;;;4840293;29;20074;-81
2021/09/05 01:20:35;;;;;;;2.53;1.13;;;15.10;79.90;;;;;;4821962;29;20128;-82
2021/09/05 01:23:01;;;;;;;3.13;1.50;;;15.10;79.90;;;;;;4810118;29;20141;-85
2021/09/05 01:36:36;;;;;;;1.92;0.90;;;14.90;80.20;;;;;;4789134;29;20065;-83
2021/09/05 01:41:55;;;;;;;2.35;1.20;;;14.80;80.10;;;;;;4809034;29;20502;-84
2021/09/05 01:44:23;;;;;;;1.15;0.90;;;14.80;80.20;;;;;;4804522;29;20039;-80
2021/09/05 01:46:49;;;;;;;1.80;1.10;;;14.80;80.20;;;;;;4812391;29;20051;-79
2021/09/05 01:49:15;;;;;;;0.95;0.88;;;14.80;80.20;;;;;;4816163;29;20070;-79
2021/09/05 01:51:41;;;;;;;2.00;1.13;;;14.80;80.30;;;;;;4819665;29;20042;-80
2021/09/05 01:54:07;;;;;;;2.35;1.38;;;14.80;80.30;;;;;;4791446;29;20055;-80
2021/09/05 01:56:34;;;;;;;2.25;1.23;;;15.00;80.50;;;;;;4776602;30;20055;-80
2021/09/05 01:59:01;;;;;;;1.33;0.95;;;14.70;80.30;;;;;;4780521;29;20043;-80
2021/09/05 02:01:29;;;;;;;1.75;1.20;;;14.80;80.30;;;;;;4793023;29;20551;-80
2021/09/05 02:03:56;;;;;;;1.45;1.00;;;14.80;80.40;;;;;;4828067;29;20052;-80
2021/09/05 02:06:22;;;;;;;1.75;1.25;;;14.80;80.40;;;;;;4899253;29;20056;-79
2021/09/05 02:08:48;;;;;;;1.70;1.20;;;14.70;80.40;;;;;;4943624;29;20145;-80
2021/09/05 02:11:15;;;;;;;2.10;1.30;;;14.70;80.50;;;;;;4956435;29;20111;-80
2021/09/05 02:13:40;;;;;;;2.13;1.40;;;14.70;80.50;;;;;;4959378;28;20051;-80
2021/09/05 02:16:07;;;;;;;1.92;1.02;;;14.60;80.50;;;;;;4947820;29;20133;-80
2021/09/05 02:18:33;;;;;;;1.90;1.27;;;14.70;80.60;;;;;;4961288;28;20058;-80
2021/09/05 02:20:58;;;;;;;2.03;1.30;;;14.60;80.60;;;;;;4948466;28;20047;-80
2021/09/05 02:23:24;;;;;;;1.58;1.15;;;14.50;80.60;;;;;;4959314;28;20047;-79
2021/09/05 02:25:50;;;;;;;2.33;1.40;;;14.50;80.70;;;;;;4944968;29;20059;-79
2021/09/05 02:28:16;;;;;;;1.85;1.10;;;14.50;80.80;;;;;;4966738;28;20101;-79
2021/09/05 02:30:42;;;;;;;2.42;1.25;;;14.50;80.80;;;;;;4941989;29;20050;-79
2021/09/05 02:33:08;;;;;;;3.03;1.45;;;14.50;80.80;;;;;;4931495;29;20039;-79
2021/09/05 02:35:34;;;;;;;2.00;1.30;;;14.50;80.80;;;;;;4958158;28;20162;-79
2021/09/05 02:37:59;;;;;;;1.67;1.10;;;14.50;80.80;;;;;;4944770;28;20039;-79
2021/09/05 02:40:25;;;;;;;2.97;1.20;;;14.40;80.80;;;;;;4957217;28;20035;-79
2021/09/05 02:42:51;;;;;;;1.80;1.20;;;14.40;80.80;;;;;;4940553;29;20545;-79
2021/09/05 02:45:17;;;;;;;1.73;1.20;;;14.40;80.80;;;;;;4957522;28;20054;-79
2021/09/05 02:47:42;;;;;;;1.75;1.20;;;14.40;80.80;;;;;;4954045;28;20442;-80
2021/09/05 02:50:09;;;;;;;1.92;1.10;;;14.40;80.80;;;;;;4955063;28;20082;-80
2021/09/05 02:52:34;;;;;;;1.52;1.00;;;14.40;80.90;;;;;;4922819;28;20086;-80
2021/09/05 02:55:00;;;;;;;1.63;1.20;;;14.30;80.80;;;;;;4939181;28;20043;-79
2021/09/05 02:57:26;;;;;;;1.42;1.08;;;14.40;81.00;;;;;;4941585;28;20053;-80
2021/09/05 02:59:52;;;;;;;2.42;1.30;;;14.40;81.00;;;;;;4942119;28;20047;-79
2021/09/05 03:02:17;;;;;;;1.55;1.08;;;14.30;81.00;;;;;;4940323;28;20058;-80
2021/09/05 03:04:43;;;;;;;1.77;1.00;;;14.30;81.00;;;;;;4959746;28;20043;-79
2021/09/05 03:07:09;;;;;;;2.58;1.33;;;14.40;81.20;;;;;;4942953;28;20039;-79
2021/09/05 03:09:35;;;;;;;2.58;1.20;;;14.30;81.20;;;;;;4942784;29;20142;-79
2021/09/05 03:12:01;;;;;;;2.38;1.27;;;14.30;81.20;;;;;;4943825;28;20090;-80
2021/09/05 03:14:26;;;;;;;1.88;1.30;;;14.20;81.10;;;;;;4937693;28;20039;-80
2021/09/05 03:16:52;;;;;;;1.73;1.30;;;14.20;81.20;;;;;;4937598;28;20052;-81
2021/09/05 03:19:18;;;;;;;2.67;1.33;;;14.20;81.10;;;;;;4921097;29;20046;-80
2021/09/05 03:21:46;;;;;;;2.15;1.40;;;14.20;81.10;;;;;;4954186;28;20109;-81
2021/09/05 03:24:12;;;;;;;2.22;1.20;;;14.20;81.10;;;;;;4959882;28;20113;-81
2021/09/05 03:26:38;;;;;;;2.22;1.30;;;14.10;81.10;;;;;;4940132;28;20183;-80
2021/09/05 03:29:04;;;;;;;2.90;1.30;;;14.10;81.10;;;;;;4923999;28;20494;-81
2021/09/05 03:31:30;;;;;;;1.77;0.98;;;14.10;81.20;;;;;;4939536;28;20081;-81
2021/09/05 03:33:55;;;;;;;1.85;1.15;;;14.10;81.20;;;;;;4941711;29;20098;-80
2021/09/05 03:36:21;;;;;;;2.33;1.48;;;14.10;81.20;;;;;;4964095;28;20044;-81
2021/09/05 03:38:48;;;;;;;1.67;1.13;;;14.10;81.30;;;;;;4939840;28;20454;-80
2021/09/05 03:41:13;;;;;;;1.88;1.10;;;14.10;81.30;;;;;;4939671;28;20552;-80
2021/09/05 03:43:39;;;;;;;1.83;1.27;;;14.10;81.30;;;;;;4940619;29;20050;-80
2021/09/05 03:46:05;;;;;;;2.00;1.00;;;14.00;81.30;;;;;;4957316;28;20039;-81
2021/09/05 03:48:32;;;;;;;1.60;1.00;;;14.10;81.40;;;;;;4941963;28;20505;-80
2021/09/05 03:50:58;;;;;;;1.50;1.00;;;14.00;81.30;;;;;;4940097;28;20040;-80
2021/09/05 03:53:26;;;;;;;2.40;1.10;;;14.00;81.30;;;;;;4939276;28;20047;-80
2021/09/05 03:55:52;;;;;;;1.52;1.00;;;13.90;81.40;;;;;;4957060;28;20061;-80
2021/09/05 03:58:17;;;;;;;2.33;1.27;;;14.00;81.50;;;;;;4940738;28;20040;-80
2021/09/05 04:00:43;;;;;;;1.98;0.90;;;13.90;81.50;;;;;;4941107;28;20062;-80
2021/09/05 04:03:09;;;;;;;1.55;1.02;;;13.90;81.60;;;;;;4957064;28;20418;-81
2021/09/05 04:05:35;;;;;;;1.65;0.95;;;13.90;81.70;;;;;;4941407;28;20556;-80
2021/09/05 04:08:14;;;;;;;1.33;0.93;;;13.90;81.70;;;;;;4956496;28;20043;-81
2021/09/05 04:10:40;;;;;;;1.55;0.80;;;13.80;81.70;;;;;;4942800;28;20047;-80
2021/09/05 04:13:06;;;;;;;1.63;1.00;;;13.90;81.80;;;;;;4939541;29;20062;-80
2021/09/05 04:15:32;;;;;;;1.38;1.00;;;13.80;81.70;;;;;;4956260;28;20039;-81
2021/09/05 04:17:58;;;;;;;1.77;1.08;;;13.80;81.70;;;;;;4954826;28;20051;-80
2021/09/05 04:20:24;;;;;;;1.60;1.00;;;13.80;81.80;;;;;;4956562;28;20386;-81
2021/09/05 04:22:50;;;;;;;1.27;1.00;;;13.80;81.80;;;;;;4939112;28;20577;-80
2021/09/05 04:25:18;;;;;;;1.23;0.95;;;13.80;81.90;;;;;;4956891;28;20086;-81
2021/09/05 04:27:44;;;;;;;1.83;1.00;;;13.70;81.90;;;;;;4940751;28;20079;-81
2021/09/05 04:30:11;;;;;;;2.13;1.10;;;13.70;81.90;;;;;;4940232;28;20450;-80
2021/09/05 04:32:38;;;;;;;1.38;0.82;;;13.60;81.90;;;;;;4938578;28;20047;-81
2021/09/05 04:35:04;;;;;;;2.47;1.40;;;13.70;82.00;;;;;;4939249;28;20121;-80
2021/09/05 04:37:30;;;;;;;1.77;1.00;;;13.70;82.10;;;;;;4938762;28;20439;-81
2021/09/05 04:39:56;;;;;;;2.20;1.13;;;13.70;82.10;;;;;;4959164;28;20039;-80
2021/09/05 04:42:22;;;;;;;1.58;1.00;;;13.80;82.10;;;;;;4938836;28;20113;-81
2021/09/05 04:44:48;;;;;;;1.00;0.88;;;13.60;82.00;;;;;;4956023;28;20039;-81
2021/09/05 04:47:14;;;;;;;1.63;0.90;;;13.60;82.10;;;;;;4956025;28;20053;-81
2021/09/05 04:49:40;;;;;;;1.38;0.90;;;13.50;82.10;;;;;;4938853;28;20062;-80
2021/09/05 04:52:06;;;;;;;3.13;1.17;;;13.60;82.20;;;;;;4955453;28;20047;-80
2021/09/05 04:54:34;;;;;;;1.70;1.00;;;13.50;82.20;;;;;;4939982;29;20039;-80
2021/09/05 04:56:59;;;;;;;2.28;1.30;;;13.50;82.30;;;;;;4940017;28;20461;-80
2021/09/05 04:59:25;;;;;;;2.20;1.05;;;13.50;82.30;;;;;;4954777;28;20078;-81
2021/09/05 05:01:51;;;;;;;1.23;0.90;;;13.50;82.40;;;;;;4938925;28;20070;-80
2021/09/05 05:04:17;;;;;;;1.70;0.90;;;13.40;82.40;;;;;;4939076;28;20077;-81
2021/09/05 05:06:43;;;;;;;1.33;0.82;;;13.50;82.50;;;;;;4955844;28;20039;-81
2021/09/05 05:09:10;;;;;;;1.67;1.13;;;13.50;82.50;;;;;;4938146;28;20398;-81
2021/09/05 05:11:40;;;;;;;2.20;1.08;;;13.40;82.50;;;;;;4938805;29;20069;-80
2021/09/05 05:14:06;;;;;;;1.70;0.85;;;13.40;82.50;;;;;;4941823;28;20043;-81
2021/09/05 05:16:32;;;;;;;1.52;0.95;;;13.40;82.50;;;;;;4938326;29;20410;-81
2021/09/05 05:18:57;;;;;;;1.77;1.08;;;13.40;82.50;;;;;;4938907;28;20051;-81
2021/09/05 05:21:27;;;;;;;1.15;0.90;;;13.40;82.50;;;;;;4954802;28;20043;-81
2021/09/05 05:23:55;;;;;;;1.98;1.17;;;13.40;82.50;;;;;;4941210;29;20095;-80
2021/09/05 05:26:21;;;;;;;2.08;1.10;;;13.40;82.50;;;;;;4955828;28;20046;-80
2021/09/05 05:28:47;;;;;;;1.45;0.95;;;13.30;82.40;;;;;;4939107;28;20047;-80
2021/09/05 05:31:12;;;;;;;2.35;1.20;;;13.30;82.50;;;;;;4941298;28;20521;-80
2021/09/05 05:33:38;;;;;;;1.50;0.90;;;13.40;82.50;;;;;;4938856;28;20520;-81
2021/09/05 05:36:04;;;;;;;1.52;1.00;;;13.40;82.50;;;;;;4955029;28;20043;-80
2021/09/05 05:38:31;;;;;;;2.40;1.30;;;13.30;82.40;;;;;;4938090;28;20121;-81
2021/09/05 05:40:56;;;;;;;1.88;1.08;;;13.30;82.40;;;;;;4938677;28;20430;-81
2021/09/05 05:43:22;;;;;;;2.15;1.15;;;13.20;82.40;;;;;;4937844;29;20089;-80
2021/09/05 05:45:48;;;;;;;2.85;1.30;;;13.30;82.50;;;;;;4955215;28;20042;-81
2021/09/05 05:48:14;;;;;;;1.80;1.15;;;13.40;82.50;;;;;;4954736;28;20043;-81
2021/09/05 05:50:42;;;;;;;1.70;1.08;;;13.30;82.50;;;;;;4938435;29;20504;-81
2021/09/05 05:53:08;;;;;;;1.67;1.00;;;13.30;82.40;;;;;;4941078;28;20043;-81
2021/09/05 05:55:34;;;;;;;2.47;1.30;;;13.30;82.40;;;;;;4940515;28;20059;-81
2021/09/05 05:58:00;;;;;;;3.85;1.30;;;13.40;82.40;;;;;;4959260;28;20047;-81
2021/09/05 06:00:27;;;;;;;2.08;1.25;;;13.40;83.00;;;;;;4954151;28;20046;-81
2021/09/05 06:02:53;;;;;;;2.35;1.27;;;13.40;82.30;;;;;;4937992;28;20046;-81
2021/09/05 06:05:20;;;;;;;2.00;1.13;;;13.40;82.30;;;;;;4956314;28;20046;-81
2021/09/05 06:07:46;;;;;;;2.65;1.10;;;13.50;82.30;;;;;;4939301;28;20047;-81
2021/09/05 06:10:12;;;;;;;1.95;1.13;;;13.40;82.20;;;;;;4955209;28;20057;-80
2021/09/05 06:12:38;;;;;;;2.17;1.17;;;13.50;82.20;;;;;;4958078;28;20126;-79
2021/09/05 06:15:05;;;;;;;1.98;1.20;;;13.50;82.10;;;;;;4938380;28;20101;-80
2021/09/05 06:17:31;;;;;;;2.33;1.23;;;13.60;82.10;;;;;;4953806;28;20058;-80
2021/09/05 06:19:56;;;;;;;2.45;1.30;;;13.60;82.00;;;;;;4938098;29;20047;-79
2021/09/05 06:22:22;;;;;;;2.58;1.30;;;13.60;81.90;;;;;;4955123;28;20342;-80
2021/09/05 06:24:48;;;;;;;2.22;1.35;;;13.70;82.50;;;;;;4922502;28;20051;-80
2021/09/05 06:27:14;;;;;;;1.95;1.15;;;13.70;81.90;;;;;;4955020;28;20036;-79
2021/09/05 06:29:39;;;;;;;2.53;1.38;;;13.70;81.80;;;;;;4955785;28;20069;-79
2021/09/05 06:32:05;;;;;;;2.53;1.50;;;13.80;81.70;;;;;;4954210;28;20051;-80
2021/09/05 06:34:32;;;;;;;2.78;1.42;;;13.80;81.70;;;;;;4938643;29;20039;-79
2021/09/05 06:36:57;;;;;;;2.90;1.45;;;13.80;81.60;;;;;;4937934;29;20358;-79
2021/09/05 06:39:23;;;;;;;3.33;1.60;;;13.80;81.50;;;;;;4940315;28;20044;-80
2021/09/05 06:41:49;;;;;;;2.45;1.25;;;13.90;81.50;;;;;;4938569;28;20043;-78
2021/09/05 06:44:14;;;;;;;3.15;1.38;;;13.90;81.40;;;;;;4953470;28;20565;-78
2021/09/05 06:46:40;;;;;;;3.20;1.50;;;14.00;81.30;;;;;;4937928;28;20129;-78
2021/09/05 06:49:06;;;;;;;2.50;1.38;;;14.00;81.30;;;;;;4954563;28;20602;-77
2021/09/05 06:51:31;;;;;;;2.13;1.20;;;14.00;81.20;;;;;;4937569;29;20043;-77
2021/09/05 06:53:57;;;;;;;1.67;1.05;;;14.10;81.20;;;;;;4937855;29;20466;-77
2021/09/05 06:56:23;;;;;;;2.60;1.40;;;14.10;81.10;;;;;;4939956;28;20051;-77
2021/09/05 06:58:48;;;;;;;3.10;1.40;;;14.10;81.00;;;;;;4958140;28;20054;-77
2021/09/05 07:01:14;;;;;;;2.60;1.48;;;14.10;81.00;;;;;;4940921;28;20130;-78
2021/09/05 07:03:40;;;;;;;2.88;1.40;;;14.20;81.00;;;;;;4940615;28;20122;-78
2021/09/05 07:06:06;;;;;;;2.97;1.65;;;14.30;81.00;;;;;;4940766;28;20043;-76
2021/09/05 07:08:32;;;;;;;2.55;1.45;;;14.20;80.90;;;;;;4958291;28;20496;-76
2021/09/05 07:10:57;;;;;;;2.80;1.40;;;14.30;80.90;;;;;;4958172;28;20343;-76
2021/09/05 07:13:23;;;;;;;2.08;1.40;;;14.20;80.80;;;;;;4940661;28;20039;-77
2021/09/05 07:15:49;;;;;;;2.15;1.30;;;14.30;80.90;;;;;;4940747;28;20043;-77
2021/09/05 07:18:14;;;;;;;2.03;1.30;;;14.30;80.80;;;;;;4956343;28;20127;-76
2021/09/05 07:20:40;;;;;;;2.13;1.20;;;14.40;80.80;;;;;;4940718;28;20039;-77
2021/09/05 07:23:06;;;;;;;1.58;1.02;;;14.40;80.80;;;;;;4957612;28;20047;-77
2021/09/05 07:25:32;;;;;;;2.10;1.10;;;14.40;80.70;;;;;;4957917;28;20039;-77
2021/09/05 07:27:58;;;;;;;2.92;1.33;;;14.50;80.70;;;;;;4942399;28;20055;-77
2021/09/05 07:30:23;;;;;;;2.47;1.35;;;14.60;80.60;;;;;;4944205;28;20129;-77
2021/09/05 07:32:49;;;;;;;2.03;1.20;;;14.50;80.60;;;;;;4957374;28;20042;-76
2021/09/05 07:35:15;;;;;;;2.55;1.55;;;14.60;80.50;;;;;;4940634;28;20053;-77
2021/09/05 07:37:46;;;;;;;2.53;1.38;;;14.60;80.40;;;;;;4957857;28;20047;-77
2021/09/05 07:40:12;;;;;;;2.60;1.63;;;14.60;80.30;;;;;;4940254;28;21080;-77
2021/09/05 07:42:38;;;;;;;3.38;1.42;;;14.70;80.30;;;;;;4939890;28;20039;-77
2021/09/05 07:45:04;;;;;;;2.65;1.48;;;14.70;80.20;;;;;;4940468;28;20489;-78
2021/09/05 07:47:30;;;;;;;1.77;1.20;;;14.70;80.10;;;;;;4940762;28;20363;-77
2021/09/05 07:49:55;;;;;;;2.55;1.33;;;14.80;80.20;;;;;;4956136;28;20102;-76
2021/09/05 07:52:21;;;;;;;2.85;1.30;;;14.80;80.00;;;;;;4940448;29;20389;-77
2021/09/05 07:54:47;;;;;;;1.60;1.17;;;14.90;80.00;;;;;;4940156;28;20047;-77
2021/09/05 07:57:12;;;;;;;2.28;1.40;;;15.00;79.90;;;;;;4957747;28;20411;-76
2021/09/05 07:59:38;;;;;;;2.00;1.33;;;15.10;79.80;;;;;;4955915;28;20074;-76
2021/09/05 08:02:04;;;;;;;2.25;1.27;;;15.10;79.70;;;;;;4939642;29;20039;-77
2021/09/05 08:04:29;;;;;;;3.10;1.48;;;15.20;79.60;;;;;;4955486;28;20051;-76
2021/09/05 08:06:55;;;;;;;2.00;1.30;;;15.30;79.50;;;;;;4955794;28;20042;-77
2021/09/05 08:09:21;;;;;;;2.75;1.45;;;15.40;79.30;;;;;;4923588;29;20060;-77
2021/09/05 08:11:46;;;;;;;2.75;1.40;;;15.60;79.30;;;;;;4923226;28;20039;-77
2021/09/05 08:14:12;;;;;;;2.38;1.55;;;15.70;79.00;;;;;;4956873;28;20515;-77
2021/09/05 08:16:38;;;;;;;2.05;1.30;;;15.80;78.80;;;;;;4955559;28;20043;-77
2021/09/05 08:19:05;;;;;;;2.30;1.35;;;16.00;78.60;;;;;;4939720;29;20063;-77
2021/09/05 08:21:31;;;;;;;3.38;1.65;;;16.10;78.40;;;;;;4939835;28;20079;-77
2021/09/05 08:23:57;;;;;;;2.67;1.48;;;16.20;78.10;;;;;;4942038;28;20027;-78
2021/09/05 08:26:25;;;;;;;1.67;1.15;;;16.30;77.90;;;;;;4939709;28;20122;-78
2021/09/05 08:28:52;;;;;;;2.00;1.38;;;16.50;77.90;;;;;;4940456;28;20058;-78
2021/09/05 08:31:18;;;;;;;1.90;1.10;;;16.60;77.80;;;;;;4939478;28;20047;-78
2021/09/05 08:33:45;;;;;;;2.60;1.27;;;16.70;77.60;;;;;;4939696;28;20150;-77
2021/09/05 08:36:10;;;;;;;2.25;1.48;;;16.80;77.50;;;;;;4939498;29;20083;-76
2021/09/05 08:38:36;;;;;;;1.35;1.20;;;16.90;77.50;;;;;;4939853;28;20082;-76
2021/09/05 08:41:02;;;;;;;2.03;1.23;;;17.00;77.40;;;;;;4939572;28;20039;-77
2021/09/05 08:43:28;;;;;;;2.30;1.30;;;17.10;77.30;;;;;;4957755;28;20593;-78
2021/09/05 08:45:55;;;;;;;2.22;1.25;;;17.10;77.20;;;;;;4938853;28;20126;-77
2021/09/05 08:48:21;;;;;;;2.72;1.50;;;17.10;77.00;;;;;;4956061;28;20486;-77
2021/09/05 08:50:49;;;;;;;1.83;1.40;;;17.30;77.20;;;;;;4939644;29;20098;-77
2021/09/05 08:53:16;;;;;;;1.65;1.20;;;17.30;77.10;;;;;;4939045;28;20039;-77
2021/09/05 08:55:43;;;;;;;1.77;1.27;;;17.40;77.10;;;;;;4939381;28;20047;-77
2021/09/05 08:58:09;;;;;;;2.35;1.58;;;17.50;77.10;;;;;;4957009;28;20038;-78
2021/09/05 09:00:36;;;;;;;2.53;1.63;;;17.60;76.90;;;;;;4923452;28;20057;-77
2021/09/05 09:03:02;;;;;;;2.75;1.40;;;17.70;76.70;;;;;;4956295;28;20044;-78
2021/09/05 09:05:32;;;;;;;1.92;1.15;;;17.80;76.70;;;;;;4939238;28;20098;-78
2021/09/05 09:08:02;;;;;;;1.52;1.10;;;17.90;76.80;;;;;;4955873;28;20067;-78
2021/09/05 09:10:28;;;;;;;1.80;1.20;;;18.00;76.80;;;;;;4955882;28;20047;-78
2021/09/05 09:12:54;;;;;;;1.85;1.30;;;18.00;76.60;;;;;;4938858;28;20073;-78
2021/09/05 09:15:28;;;;;;;2.75;1.50;;;18.10;76.50;;;;;;4954792;28;20051;-77
2021/09/05 09:17:57;;;;;;;2.28;1.40;;;18.10;76.50;;;;;;4938363;28;20047;-77
2021/09/05 09:20:32;;;;;;;2.50;1.52;;;18.10;76.50;;;;;;4955672;28;20047;-78
2021/09/05 09:23:15;;;;;;;2.05;1.40;;;18.10;76.50;;;;;;4972256;28;20050;-78
2021/09/05 09:26:01;;;;;;;2.15;1.20;;;18.10;76.50;;;;;;4956230;28;20533;-77
2021/09/05 09:28:47;;;;;;;1.67;1.38;;;18.20;76.50;;;;;;4955986;28;20047;-77
2021/09/05 09:31:17;;;;;;;1.92;1.30;;;18.20;76.30;;;;;;4986285;28;20074;-78
2021/09/05 09:33:47;;;;;;;1.70;1.30;;;18.20;76.40;;;;;;4938656;28;20039;-77
2021/09/05 09:36:15;;;;;;;2.20;1.30;;;18.30;76.40;;;;;;4938722;29;20047;-77
2021/09/05 09:38:45;;;;;;;2.00;1.42;;;18.30;76.30;;;;;;4938670;28;20126;-77
2021/09/05 09:41:14;;;;;;;1.85;1.38;;;18.30;76.20;;;;;;4952286;28;20090;-78
2021/09/05 09:43:50;;;;;;;2.30;1.45;;;18.40;76.20;;;;;;4950484;28;20490;-77
2021/09/05 09:46:21;;;;;;;1.50;1.10;;;18.50;76.20;;;;;;4938189;28;20513;-78
2021/09/05 09:48:47;;;;;;;;;;;18.50;76.20;;;;;;4956168;28;20071;-77
2021/09/05 09:51:14;;;;;;;2.40;1.52;;;18.50;76.00;;;;;;4938195;28;19914;-78
2021/09/05 09:53:41;;;;;;;1.98;1.45;;;18.50;75.80;;;;;;4955128;28;20078;-78
2021/09/05 09:56:08;;;;;;;1.75;1.20;;;18.60;75.80;;;;;;4955538;28;20082;-77
2021/09/05 09:58:35;;;;;;;2.20;1.50;;;18.50;75.70;;;;;;4953430;28;20457;-78
2021/09/05 10:01:02;;;;;;;1.80;1.35;;;18.60;75.70;;;;;;4937960;28;20075;-78
2021/09/05 10:03:30;;;;;;;1.60;1.00;;;18.60;75.60;;;;;;4939432;28;20047;-79
2021/09/05 10:05:59;;;;;;;1.60;1.20;;;18.70;75.60;;;;;;4953522;28;20083;-78
2021/09/05 10:08:27;;;;;;;2.28;1.50;;;18.60;75.50;;;;;;4949115;28;20047;-77
2021/09/05 10:10:58;;;;;;;1.55;1.20;;;18.70;75.50;;;;;;4937619;28;20050;-78
2021/09/05 10:13:30;;;;;;;2.92;1.40;;;18.70;75.50;;;;;;4921460;28;20054;-78
2021/09/05 10:15:56;;;;;;;1.63;1.10;;;18.70;75.50;;;;;;4969523;28;20069;-78
2021/09/05 10:18:22;;;;;;;2.33;1.20;;;18.70;75.50;;;;;;4937178;29;20054;-78
2021/09/05 10:20:48;;;;;;;2.17;1.50;;;18.80;75.50;;;;;;4951068;29;20039;-77
2021/09/05 10:23:14;;;;;;;2.55;1.33;;;18.80;75.40;;;;;;4939481;29;20477;-78
2021/09/05 10:25:39;;;;;;;1.92;1.20;;;18.90;75.40;;;;;;4954675;28;20039;-79
2021/09/05 10:28:05;;;;;;;1.83;1.25;;;18.80;75.10;;;;;;4959635;28;20036;-79
2021/09/05 10:30:31;;;;;;;2.72;1.40;;;18.80;75.10;;;;;;4941756;28;20112;-79
2021/09/05 10:33:00;;;;;;;2.30;1.58;;;18.90;75.10;;;;;;4959568;28;20513;-79
2021/09/05 10:35:27;;;;;;;2.13;1.30;;;18.90;75.10;;;;;;4944603;28;20047;-79
2021/09/05 10:38:21;;;;;;;2.80;1.45;;;18.90;75.10;;;;;;4945068;28;20050;-79
2021/09/05 10:40:51;;;;;;;1.83;1.10;;;19.00;75.10;;;;;;4943910;29;20051;-79
2021/09/05 10:43:18;;;;;;;1.55;1.23;;;19.00;75.00;;;;;;4945600;28;20042;-80
2021/09/05 10:45:48;;;;;;;1.60;1.10;;;19.00;74.90;;;;;;4956375;28;20047;-79
2021/09/05 10:48:29;;;;;;;2.30;1.30;;;19.00;74.80;;;;;;4948854;28;20047;-79
2021/09/05 10:51:11;;;;;;;1.42;1.20;;;19.10;74.70;;;;;;4942464;29;20074;-79
2021/09/05 10:53:48;;;;;;;1.45;1.00;;;19.20;74.70;;;;;;4949392;29;20054;-79
2021/09/05 10:56:19;;;;;;;2.80;1.50;;;19.20;74.60;;;;;;4950938;28;20122;-79
2021/09/05 10:59:00;;;;;;;3.08;1.67;;;19.20;74.50;;;;;;4948631;29;20033;-78
2021/09/05 11:01:30;;;;;;;1.70;1.10;;;19.30;74.40;;;;;;4958644;28;20135;-79
2021/09/05 11:04:06;;;;;;;;;;;19.40;74.30;;;;;;4947278;28;20044;-79
2021/09/05 11:06:37;;;;;;;1.10;1.00;;;19.30;74.20;;;;;;4962244;28;20346;-79
2021/09/05 11:09:36;;;;;;;1.92;1.10;;;19.40;74.20;;;;;;4971251;28;20047;-79
2021/09/05 11:12:11;;;;;;;1.77;1.00;;;19.40;74.00;;;;;;4947363;29;20074;-79
2021/09/05 11:14:54;;;;;;;1.35;0.98;;;19.50;74.00;;;;;;4958086;28;20047;-79
2021/09/05 11:17:23;;;;;;;1.10;0.98;;;19.60;73.90;;;;;;4945460;28;20043;-79
2021/09/05 11:19:52;;;;;;;1.83;1.00;;;19.70;73.90;;;;;;4968931;28;20059;-79
2021/09/05 11:22:33;;;;;;;1.40;1.00;;;19.80;73.70;;;;;;4945805;29;20114;-79
2021/09/05 11:25:16;;;;;;;1.80;1.13;;;19.80;73.50;;;;;;4958911;28;20077;-79
2021/09/05 11:27:56;;;;;;;1.80;1.13;;;19.90;73.30;;;;;;4947237;29;20486;-79
2021/09/05 11:30:25;;;;;;;1.17;0.88;;;20.00;73.20;;;;;;4940887;28;20042;-80
2021/09/05 11:33:01;;;;;;;2.15;1.20;;;20.10;73.10;;;;;;4964822;28;20051;-80
2021/09/05 11:35:32;;;;;;;1.27;0.90;;;20.20;73.60;;;;;;4960030;28;20039;-80
2021/09/05 11:37:58;;;;;;;2.13;1.35;;;20.20;72.80;;;;;;4962789;28;20047;-80
2021/09/05 11:40:24;;;;;;;1.48;1.10;;;20.30;72.70;;;;;;4947933;28;20153;-80
2021/09/05 11:42:52;;;;;;;1.75;1.00;;;20.40;72.70;;;;;;4965804;28;20053;-79
2021/09/05 11:45:19;;;;;;;1.88;0.98;;;20.40;72.50;;;;;;4950356;28;20477;-80
2021/09/05 11:47:47;;;;;;;0.98;0.88;;;20.50;72.50;;;;;;4946684;28;20039;-79
2021/09/05 11:50:13;;;;;;;1.48;1.00;;;20.60;72.30;;;;;;4952264;29;20047;-79
2021/09/05 11:52:41;;;;;;;1.65;1.00;;;20.70;72.20;;;;;;4964025;28;20047;-80
2021/09/05 11:55:11;;;;;;;1.63;1.00;;;20.70;72.10;;;;;;4967526;28;20059;-79
2021/09/05 11:57:49;;;;;;;1.10;1.00;;;20.80;72.00;;;;;;4952029;29;20051;-79
2021/09/05 12:00:24;;;;;;;1.38;1.10;;;20.90;71.90;;;;;;4971957;28;20462;-79
2021/09/05 12:02:51;;;;;;;1.90;1.20;;;21.00;71.70;;;;;;4968084;28;20051;-80
2021/09/05 12:05:17;;;;;;;1.52;1.08;;;21.00;71.50;;;;;;4955881;28;20110;-80
2021/09/05 12:07:43;;;;;;;1.10;0.90;;;21.20;71.30;;;;;;4953360;28;20039;-80
2021/09/05 12:10:12;;;;;;;2.28;1.20;;;21.20;71.20;;;;;;4938590;28;20055;-79
2021/09/05 12:12:39;;;;;;;1.85;1.25;;;21.20;71.10;;;;;;4953840;28;20564;-79
2021/09/05 12:15:14;;;;;;;1.40;1.20;;;21.30;71.00;;;;;;4968505;28;20074;-81
2021/09/05 12:17:43;;;;;;;1.75;1.10;;;21.30;70.90;;;;;;4964049;28;20054;-80
2021/09/05 12:20:10;;;;;;;1.63;1.10;;;21.40;70.80;;;;;;4968554;28;20470;-79
2021/09/05 12:22:49;;;;;;;1.33;0.95;;;21.40;70.80;;;;;;4967818;28;20039;-79
2021/09/05 12:25:20;;;;;;;1.50;0.90;;;21.50;70.70;;;;;;4956056;28;20092;-80
2021/09/05 12:27:56;;;;;;;1.30;0.98;;;21.50;70.70;;;;;;4967426;28;20074;-80
2021/09/05 12:30:27;;;;;;;1.20;1.05;;;21.50;70.60;;;;;;4951336;28;20070;-81
2021/09/05 12:33:14;;;;;;;1.10;0.95;;;21.50;70.40;;;;;;4955967;28;20103;-80
2021/09/05 12:35:42;;;;;;;1.30;0.93;;;21.60;70.50;;;;;;4971126;28;20580;-80
2021/09/05 12:38:12;;;;;;;1.88;1.05;;;21.60;70.40;;;;;;4969563;28;20054;-79
2021/09/05 12:40:41;;;;;;;1.20;0.95;;;21.60;70.30;;;;;;4954934;28;20058;-80
2021/09/05 12:43:07;;;;;;;2.28;1.30;;;21.70;70.20;;;;;;4970587;28;20053;-80
2021/09/05 12:45:34;;;;;;;1.38;1.02;;;21.70;70.20;;;;;;4951181;28;20062;-80
2021/09/05 12:48:15;;;;;;;2.33;1.40;;;21.70;70.20;;;;;;4955100;28;20047;-80
2021/09/05 12:50:41;;;;;;;2.22;1.10;;;21.80;70.10;;;;;;4955093;28;20031;-80
2021/09/05 12:53:11;;;;;;;1.63;1.17;;;21.80;69.90;;;;;;4952240;28;20075;-80
2021/09/05 12:55:39;;;;;;;1.10;0.90;;;21.80;69.90;;;;;;4953243;28;20051;-80
2021/09/05 12:58:05;;;;;;;1.13;0.95;;;21.80;70.00;;;;;;4955811;28;20047;-80
2021/09/05 13:00:32;;;;;;;1.92;1.17;;;21.80;69.90;;;;;;4975273;28;20186;-81
2021/09/05 13:03:00;;;;;;;1.65;1.10;;;21.80;69.90;;;;;;4955219;28;20039;-80
2021/09/05 13:05:26;;;;;;;1.70;1.27;;;21.90;69.80;;;;;;4956448;28;20059;-80
2021/09/05 13:07:52;;;;;;;1.50;1.05;;;21.90;69.60;;;;;;4969887;28;20035;-79
2021/09/05 13:10:17;;;;;;;1.40;1.08;;;21.80;69.60;;;;;;4954307;28;20070;-80
2021/09/05 13:12:43;;;;;;;1.35;1.00;;;21.90;69.60;;;;;;4958824;28;20102;-79
2021/09/05 13:15:09;;;;;;;1.30;1.00;;;21.90;69.60;;;;;;4969365;28;20051;-80
2021/09/05 13:17:36;;;;;;;1.60;1.10;;;22.00;69.60;;;;;;4970372;28;20049;-79
2021/09/05 13:20:07;;;;;;;2.53;1.40;;;21.90;69.60;;;;;;4970504;28;20581;-80
2021/09/05 13:22:33;;;;;;;0.90;0.90;;;22.00;69.50;;;;;;4952231;28;20532;-80
2021/09/05 13:24:59;;;;;;;1.80;1.20;;;22.00;69.30;;;;;;4967875;28;20168;-80
2021/09/05 13:30:23;;;;;;;2.35;1.35;;;22.10;68.90;;;;;;4859009;29;20116;-84
2021/09/05 13:32:51;;;;;;;1.48;1.30;;;22.10;68.80;;;;;;4850177;29;20129;-85